sim
Sign-in with your pilot id or email,
or register
Callsign
Passwort

Schedule Details

Flight Number: OEO8421
Departure: Nantes Atlantique Airport (LFRS) at 12:50
Arrival: Munich Airport (EDDM) at 14:45

Weather Information
Getting current METAR information for LFRS 010600Z AUTO 27006KT 9999 FEW009 BKN052 BKN066 12/11 Q1004 TEMPO 3000 SHRA BKN009 BKN020CB
Getting current METAR information for EDDM 010620Z 00000KT 0800 R08L/0550D R08R/0275N FG SCT001 05/04 Q1009 BECMG 1500 BCFG

Schedule Frequency

Route Map